Time;durP1;ratioP1;P1;durP2;ratioP2;P2;SDS_P1;SDS_P2;PMS_P1;PMS_P2;Temp;Humidity;BMP_temperature;BMP_pressure;BME280_temperature;BME280_humidity;BME280_pressure;Samples;Min_cycle;Max_cycle;Signal;HPM_P1;HPM_P2
2023/06/27 00:01:58;;;;;;;;;;;;;;;;;;5070243;28;1096;-67
2023/06/27 00:04:24;;;;;;;;;;;;;;;;;;5068247;28;5057;-67
2023/06/27 00:06:49;;;;;;;;;;;;;;;;;;5069727;28;5014;-67
2023/06/27 00:09:15;;;;;;;;;;;;;;;;;;5057457;28;5673;-67
2023/06/27 00:11:40;;;;;;;;;;;;;;;;;;5069025;28;5011;-68
2023/06/27 00:14:07;;;;;;;;;;;;;;;;;;5067800;28;1159;-67
2023/06/27 00:16:32;;;;;;;;;;;;;;;;;;5069202;28;4796;-67
2023/06/27 00:19:02;;;;;;;;;;;;;;;;;;5062851;28;5276;-68
2023/06/27 00:21:28;;;;;;;;;;;;;;;;;;5065967;28;5131;-70
2023/06/27 00:23:55;;;;;;;;;;;;;;;;;;5059310;28;4683;-67
2023/06/27 00:26:21;;;;;;;;;;;;;;;;;;5057319;28;5030;-69
2023/06/27 00:28:46;;;;;;;;;;;;;;;;;;5068669;28;1922;-67
2023/06/27 00:31:11;;;;;;;;;;;;;;;;;;5059090;28;5089;-68
2023/06/27 00:33:36;;;;;;;;;;;;;;;;;;5061836;28;4571;-68
2023/06/27 00:36:02;;;;;;;;;;;;;;;;;;5064039;28;4452;-68
2023/06/27 00:38:27;;;;;;;;;;;;;;;;;;5061302;28;4435;-67
2023/06/27 00:40:52;;;;;;;;;;;;;;;;;;5062609;28;1581;-67
2023/06/27 00:43:18;;;;;;;;;;;;;;;;;;5064276;28;4440;-67
2023/06/27 00:45:43;;;;;;;;;;;;;;;;;;5064993;28;4432;-67
2023/06/27 00:48:08;;;;;;;;;;;;;;;;;;5062490;28;5045;-68
2023/06/27 00:50:35;;;;;;;;;;;;;;;;;;5058190;28;5034;-67
2023/06/27 00:53:01;;;;;;;;;;;;;;;;;;5064451;28;1124;-67
2023/06/27 00:55:28;;;;;;;;;;;;;;;;;;5059941;28;5020;-67
2023/06/27 00:57:53;;;;;;;;;;;;;;;;;;5048431;28;4857;-68
2023/06/27 01:00:19;;;;;;;;;;;;;;;;;;5051386;28;5107;-67
2023/06/27 01:02:48;;;;;;;;;;;;;;;;;;5065623;28;4921;-67
2023/06/27 01:05:13;;;;;;;;;;;;;;;;;;5057400;28;5066;-67
2023/06/27 01:07:45;;;;;;;;;;;;;;;;;;5066207;28;3540;-68
2023/06/27 01:10:19;;;;;;;;;;;;;;;;;;5066394;28;5378;-67
2023/06/27 01:12:48;;;;;;;;;;;;;;;;;;5061780;28;4887;-67
2023/06/27 01:15:13;;;;;;;;;;;;;;;;;;5066668;28;4508;-67
2023/06/27 01:17:38;;;;;;;;;;;;;;;;;;5064597;28;5077;-67
2023/06/27 01:20:04;;;;;;;;;;;;;;;;;;5055651;28;1297;-67
2023/06/27 01:22:30;;;;;;;;;;;;;;;;;;5068945;28;4949;-69
2023/06/27 01:24:56;;;;;;;;;;;;;;;;;;5067330;28;5042;-67
2023/06/27 01:27:22;;;;;;;;;;;;;;;;;;5059943;28;4957;-67
2023/06/27 01:29:47;;;;;;;;;;;;;;;;;;5057813;28;5110;-67
2023/06/27 01:32:26;;;;;;;;;;;;;;;;;;5067846;28;5038;-67
2023/06/27 01:34:57;;;;;;;;;;;;;;;;;;5078812;28;1935;-67
2023/06/27 01:37:28;;;;;;;;;;;;;;;;;;5067521;28;4424;-67
2023/06/27 01:39:57;;;;;;;;;;;;;;;;;;5066956;28;4877;-69
2023/06/27 01:42:31;;;;;;;;;;;;;;;;;;5066765;28;4869;-67
2023/06/27 01:44:57;;;;;;;;;;;;;;;;;;5066979;28;4620;-69
2023/06/27 01:47:22;;;;;;;;;;;;;;;;;;5061618;28;5035;-68
2023/06/27 01:49:47;;;;;;;;;;;;;;;;;;5082455;28;3421;-67
2023/06/27 01:52:12;;;;;;;;;;;;;;;;;;5074292;28;4737;-67
2023/06/27 01:54:41;;;;;;;;;;;;;;;;;;5078712;28;4897;-66
2023/06/27 01:57:06;;;;;;;;;;;;;;;;;;5077315;28;4608;-67
2023/06/27 01:59:31;;;;;;;;;;;;;;;;;;5079939;28;5097;-66
2023/06/27 02:01:57;;;;;;;;;;;;;;;;;;5073807;28;3449;-66
2023/06/27 02:04:22;;;;;;;;;;;;;;;;;;5079279;28;5010;-66
2023/06/27 02:06:47;;;;;;;;;;;;;;;;;;5090491;28;5084;-66
2023/06/27 02:09:12;;;;;;;;;;;;;;;;;;5092083;28;5015;-66
2023/06/27 02:11:38;;;;;;;;;;;;;;;;;;5087583;28;5281;-66
2023/06/27 02:14:03;;;;;;;;;;;;;;;;;;5088380;28;1146;-66
2023/06/27 02:16:28;;;;;;;;;;;;;;;;;;5083390;28;5103;-66
2023/06/27 02:18:53;;;;;;;;;;;;;;;;;;5077955;28;5025;-65
2023/06/27 02:21:19;;;;;;;;;;;;;;;;;;5087776;28;4956;-67
2023/06/27 02:23:44;;;;;;;;;;;;;;;;;;5085952;28;5075;-67
2023/06/27 02:26:10;;;;;;;;;;;;;;;;;;5083082;28;5020;-67
2023/06/27 02:28:35;;;;;;;;;;;;;;;;;;5082520;28;5018;-67
2023/06/27 02:31:00;;;;;;;;;;;;;;;;;;5078979;28;4984;-67
2023/06/27 02:33:26;;;;;;;;;;;;;;;;;;5088039;28;5045;-67
2023/06/27 02:35:51;;;;;;;;;;;;;;;;;;5082712;28;4490;-67
2023/06/27 02:38:16;;;;;;;;;;;;;;;;;;5088164;28;5060;-68
2023/06/27 02:40:41;;;;;;;;;;;;;;;;;;5088386;28;1230;-67
2023/06/27 02:43:06;;;;;;;;;;;;;;;;;;5088357;28;5207;-67
2023/06/27 02:45:32;;;;;;;;;;;;;;;;;;5091151;28;5122;-66
2023/06/27 02:47:57;;;;;;;;;;;;;;;;;;5091477;28;4659;-66
2023/06/27 02:50:22;;;;;;;;;;;;;;;;;;5091344;28;5069;-66
2023/06/27 02:52:47;;;;;;;;;;;;;;;;;;5091787;28;2377;-67
2023/06/27 02:55:13;;;;;;;;;;;;;;;;;;5089963;28;5154;-66
2023/06/27 02:57:38;;;;;;;;;;;;;;;;;;5081242;28;4811;-66
2023/06/27 03:00:04;;;;;;;;;;;;;;;;;;5071931;28;5117;-66
2023/06/27 03:02:29;;;;;;;;;;;;;;;;;;5073125;28;4841;-67
2023/06/27 03:04:54;;;;;;;;;;;;;;;;;;5091918;28;1173;-66
2023/06/27 03:07:20;;;;;;;;;;;;;;;;;;5091120;28;5076;-66
2023/06/27 03:09:45;;;;;;;;;;;;;;;;;;5090944;28;4598;-66
2023/06/27 03:12:10;;;;;;;;;;;;;;;;;;5080481;28;4917;-66
2023/06/27 03:14:35;;;;;;;;;;;;;;;;;;5090808;28;5405;-66
2023/06/27 03:17:01;;;;;;;;;;;;;;;;;;5091320;28;1163;-67
2023/06/27 03:19:26;;;;;;;;;;;;;;;;;;5089155;28;5004;-67
2023/06/27 03:21:51;;;;;;;;;;;;;;;;;;5088629;28;4476;-67
2023/06/27 03:24:16;;;;;;;;;;;;;;;;;;5076605;28;5206;-67
2023/06/27 03:26:42;;;;;;;;;;;;;;;;;;5071744;28;4886;-67
2023/06/27 03:29:07;;;;;;;;;;;;;;;;;;5084479;28;3186;-67
2023/06/27 03:31:32;;;;;;;;;;;;;;;;;;5084258;28;4394;-67
2023/06/27 03:33:59;;;;;;;;;;;;;;;;;;5082931;28;5033;-67
2023/06/27 03:36:24;;;;;;;;;;;;;;;;;;5087148;28;4958;-67
2023/06/27 03:38:50;;;;;;;;;;;;;;;;;;5084741;28;4496;-67
2023/06/27 03:41:16;;;;;;;;;;;;;;;;;;5077912;28;4999;-67
2023/06/27 03:43:41;;;;;;;;;;;;;;;;;;5088700;28;3208;-67
2023/06/27 03:46:06;;;;;;;;;;;;;;;;;;5090664;28;5052;-66
2023/06/27 03:48:31;;;;;;;;;;;;;;;;;;5087064;28;4509;-66
2023/06/27 03:50:57;;;;;;;;;;;;;;;;;;5091070;28;4857;-66
2023/06/27 03:53:22;;;;;;;;;;;;;;;;;;5089038;28;4970;-68
2023/06/27 03:55:47;;;;;;;;;;;;;;;;;;5083567;28;1202;-65
2023/06/27 03:58:13;;;;;;;;;;;;;;;;;;5080000;28;4685;-67
2023/06/27 04:00:40;;;;;;;;;;;;;;;;;;5084469;28;5080;-67
2023/06/27 04:03:06;;;;;;;;;;;;;;;;;;5083800;28;5119;-67
2023/06/27 04:05:31;;;;;;;;;;;;;;;;;;5078120;28;5139;-67
2023/06/27 04:07:56;;;;;;;;;;;;;;;;;;5074738;28;1197;-68
2023/06/27 04:10:21;;;;;;;;;;;;;;;;;;5077966;28;4458;-68
2023/06/27 04:12:47;;;;;;;;;;;;;;;;;;5081701;28;5036;-68
2023/06/27 04:15:12;;;;;;;;;;;;;;;;;;5087759;28;4993;-67
2023/06/27 04:17:37;;;;;;;;;;;;;;;;;;5085737;28;4912;-67
2023/06/27 04:20:03;;;;;;;;;;;;;;;;;;5069543;28;3187;-65
2023/06/27 04:22:28;;;;;;;;;;;;;;;;;;5081485;28;5048;-66
2023/06/27 04:24:53;;;;;;;;;;;;;;;;;;5083524;28;4984;-66
2023/06/27 04:27:19;;;;;;;;;;;;;;;;;;5080043;28;4973;-66
2023/06/27 04:29:44;;;;;;;;;;;;;;;;;;5086902;28;4675;-67
2023/06/27 04:32:09;;;;;;;;;;;;;;;;;;5085253;28;3318;-66
2023/06/27 04:34:36;;;;;;;;;;;;;;;;;;5077675;28;5053;-65
2023/06/27 04:37:02;;;;;;;;;;;;;;;;;;5059453;28;4696;-66
2023/06/27 04:39:28;;;;;;;;;;;;;;;;;;5084608;28;5096;-66
2023/06/27 04:41:53;;;;;;;;;;;;;;;;;;5064811;28;5253;-66
2023/06/27 04:44:20;;;;;;;;;;;;;;;;;;5069128;28;4949;-66
2023/06/27 04:46:46;;;;;;;;;;;;;;;;;;5064481;28;3200;-66
2023/06/27 04:49:11;;;;;;;;;;;;;;;;;;5066695;28;4954;-66
2023/06/27 04:51:36;;;;;;;;;;;;;;;;;;5065099;28;5005;-67
2023/06/27 04:54:01;;;;;;;;;;;;;;;;;;5080673;28;4894;-66
2023/06/27 04:56:27;;;;;;;;;;;;;;;;;;5067367;28;4973;-68
2023/06/27 04:58:52;;;;;;;;;;;;;;;;;;5083018;28;3179;-69
2023/06/27 05:01:18;;;;;;;;;;;;;;;;;;5081278;28;5076;-67
2023/06/27 05:03:43;;;;;;;;;;;;;;;;;;5087811;28;5163;-67
2023/06/27 05:06:08;;;;;;;;;;;;;;;;;;5082484;28;5119;-67
2023/06/27 05:08:34;;;;;;;;;;;;;;;;;;5086193;28;5159;-67
2023/06/27 05:11:00;;;;;;;;;;;;;;;;;;5062086;28;3208;-66
2023/06/27 05:13:25;;;;;;;;;;;;;;;;;;5082433;28;4441;-67
2023/06/27 05:15:50;;;;;;;;;;;;;;;;;;5085017;28;5006;-67
2023/06/27 05:18:15;;;;;;;;;;;;;;;;;;5079645;28;4441;-67
2023/06/27 05:20:41;;;;;;;;;;;;;;;;;;5081948;28;4505;-67
2023/06/27 05:23:06;;;;;;;;;;;;;;;;;;5078541;28;3106;-67
2023/06/27 05:25:32;;;;;;;;;;;;;;;;;;5082063;28;5003;-67
2023/06/27 05:27:57;;;;;;;;;;;;;;;;;;5074256;28;5057;-67
2023/06/27 05:30:22;;;;;;;;;;;;;;;;;;5079188;28;5026;-67
2023/06/27 05:32:48;;;;;;;;;;;;;;;;;;5083909;28;4499;-67
2023/06/27 05:35:13;;;;;;;;;;;;;;;;;;5074003;28;4924;-66
2023/06/27 05:37:39;;;;;;;;;;;;;;;;;;5080731;28;2983;-66
2023/06/27 05:40:04;;;;;;;;;;;;;;;;;;5082032;28;4468;-66
2023/06/27 05:42:30;;;;;;;;;;;;;;;;;;5087552;28;5018;-66
2023/06/27 05:44:55;;;;;;;;;;;;;;;;;;5060854;28;4883;-68
2023/06/27 05:47:20;;;;;;;;;;;;;;;;;;5057804;28;5088;-68
2023/06/27 05:49:47;;;;;;;;;;;;;;;;;;5080519;28;3209;-70
2023/06/27 05:52:13;;;;;;;;;;;;;;;;;;5080261;28;4969;-68
2023/06/27 05:54:38;;;;;;;;;;;;;;;;;;5080963;28;4996;-68
2023/06/27 05:57:03;;;;;;;;;;;;;;;;;;5081298;28;5028;-67
2023/06/27 05:59:29;;;;;;;;;;;;;;;;;;5082004;28;5221;-68
2023/06/27 06:01:54;;;;;;;;;;;;;;;;;;5077586;28;3231;-69
2023/06/27 06:04:19;;;;;;;;;;;;;;;;;;5059985;28;5229;-68
2023/06/27 06:06:46;;;;;;;;;;;;;;;;;;5086396;28;5135;-69
2023/06/27 06:09:11;;;;;;;;;;;;;;;;;;5075742;28;5090;-68
2023/06/27 06:11:37;;;;;;;;;;;;;;;;;;5081470;28;5040;-68
2023/06/27 06:14:02;;;;;;;;;;;;;;;;;;5084685;28;1088;-68
2023/06/27 06:16:29;;;;;;;;;;;;;;;;;;5086374;28;4393;-69
2023/06/27 06:18:54;;;;;;;;;;;;;;;;;;5087999;28;5113;-68
2023/06/27 06:21:20;;;;;;;;;;;;;;;;;;5091857;28;5027;-68
2023/06/27 06:23:45;;;;;;;;;;;;;;;;;;5084533;28;4480;-68
2023/06/27 06:26:10;;;;;;;;;;;;;;;;;;5084393;28;4962;-68
2023/06/27 06:28:36;;;;;;;;;;;;;;;;;;5080912;28;4540;-68
2023/06/27 06:31:01;;;;;;;;;;;;;;;;;;5082884;28;5789;-67
2023/06/27 06:33:27;;;;;;;;;;;;;;;;;;5085102;28;5188;-68
2023/06/27 06:35:53;;;;;;;;;;;;;;;;;;5086035;28;4499;-68
2023/06/27 06:38:18;;;;;;;;;;;;;;;;;;5093247;28;4491;-68
2023/06/27 06:40:44;;;;;;;;;;;;;;;;;;5075025;28;1139;-68
2023/06/27 06:43:09;;;;;;;;;;;;;;;;;;5087427;28;4934;-68
2023/06/27 06:45:34;;;;;;;;;;;;;;;;;;5081226;28;4927;-68
2023/06/27 06:47:59;;;;;;;;;;;;;;;;;;5091631;28;5019;-68
2023/06/27 06:50:25;;;;;;;;;;;;;;;;;;5091024;28;4998;-68
2023/06/27 06:52:50;;;;;;;;;;;;;;;;;;5073634;28;1140;-68
2023/06/27 06:55:15;;;;;;;;;;;;;;;;;;5085791;28;4853;-67
2023/06/27 06:57:40;;;;;;;;;;;;;;;;;;5082714;28;4607;-67
2023/06/27 07:00:06;;;;;;;;;;;;;;;;;;5086466;28;5025;-68
2023/06/27 07:02:31;;;;;;;;;;;;;;;;;;5085833;28;5050;-68
2023/06/27 07:04:57;;;;;;;;;;;;;;;;;;5086444;28;1172;-68
2023/06/27 07:07:23;;;;;;;;;;;;;;;;;;5074309;28;4662;-68
2023/06/27 07:09:48;;;;;;;;;;;;;;;;;;5077696;28;4456;-67
2023/06/27 07:12:13;;;;;;;;;;;;;;;;;;5090292;28;5015;-68
2023/06/27 07:14:39;;;;;;;;;;;;;;;;;;5079495;28;4852;-68
2023/06/27 07:17:04;;;;;;;;;;;;;;;;;;5085305;28;3102;-67
2023/06/27 07:19:29;;;;;;;;;;;;;;;;;;5083622;28;4442;-68
2023/06/27 07:21:55;;;;;;;;;;;;;;;;;;5085538;28;4992;-68
2023/06/27 07:24:20;;;;;;;;;;;;;;;;;;5065515;28;5080;-68
2023/06/27 07:26:45;;;;;;;;;;;;;;;;;;5083188;28;5028;-67
2023/06/27 07:29:10;;;;;;;;;;;;;;;;;;5086231;28;2682;-68
2023/06/27 07:31:36;;;;;;;;;;;;;;;;;;5088600;28;4900;-67
2023/06/27 07:34:01;;;;;;;;;;;;;;;;;;5071797;28;4552;-68
2023/06/27 07:36:27;;;;;;;;;;;;;;;;;;5084099;28;5083;-68
2023/06/27 07:38:52;;;;;;;;;;;;;;;;;;5069896;28;5432;-68
2023/06/27 07:41:18;;;;;;;;;;;;;;;;;;5089913;28;4616;-68
2023/06/27 07:43:43;;;;;;;;;;;;;;;;;;5090189;28;1076;-68
2023/06/27 07:46:08;;;;;;;;;;;;;;;;;;5086706;28;5009;-68
2023/06/27 07:48:34;;;;;;;;;;;;;;;;;;5087240;28;5078;-68
2023/06/27 07:50:59;;;;;;;;;;;;;;;;;;5081467;28;5102;-69
2023/06/27 07:53:24;;;;;;;;;;;;;;;;;;5085293;28;4500;-69
2023/06/27 07:55:49;;;;;;;;;;;;;;;;;;5065514;28;2018;-66
2023/06/27 07:58:15;;;;;;;;;;;;;;;;;;5082910;28;4528;-70
2023/06/27 08:00:40;;;;;;;;;;;;;;;;;;5082806;28;5109;-70
2023/06/27 08:03:05;;;;;;;;;;;;;;;;;;5084081;28;4447;-70
2023/06/27 08:05:34;;;;;;;;;;;;;;;;;;5081621;28;4916;-70
2023/06/27 08:07:59;;;;;;;;;;;;;;;;;;5083785;28;1169;-70
2023/06/27 08:10:25;;;;;;;;;;;;;;;;;;5084078;28;4982;-70
2023/06/27 08:12:50;;;;;;;;;;;;;;;;;;5087411;28;4450;-70
2023/06/27 08:15:16;;;;;;;;;;;;;;;;;;5086304;28;4809;-70
2023/06/27 08:17:41;;;;;;;;;;;;;;;;;;5066669;28;5139;-70
2023/06/27 08:20:07;;;;;;;;;;;;;;;;;;5080047;28;1111;-72
2023/06/27 08:22:32;;;;;;;;;;;;;;;;;;5074568;28;4701;-69
2023/06/27 08:24:58;;;;;;;;;;;;;;;;;;5068511;28;4930;-67
2023/06/27 08:27:23;;;;;;;;;;;;;;;;;;5080464;28;5180;-72
2023/06/27 08:29:49;;;;;;;;;;;;;;;;;;5083886;28;6216;-67
2023/06/27 08:32:14;;;;;;;;;;;;;;;;;;5073988;28;5067;-71
2023/06/27 08:34:41;;;;;;;;;;;;;;;;;;5078347;28;1502;-64
2023/06/27 08:37:07;;;;;;;;;;;;;;;;;;5084774;28;4449;-64
2023/06/27 08:39:32;;;;;;;;;;;;;;;;;;5087568;28;4852;-63
2023/06/27 08:41:57;;;;;;;;;;;;;;;;;;5086690;28;4477;-63
2023/06/27 08:44:22;;;;;;;;;;;;;;;;;;5060142;28;5765;-62
2023/06/27 08:46:48;;;;;;;;;;;;;;;;;;5082491;28;3074;-64
2023/06/27 08:49:15;;;;;;;;;;;;;;;;;;5083334;28;4992;-62
2023/06/27 08:51:40;;;;;;;;;;;;;;;;;;5084414;28;5121;-63
2023/06/27 08:54:12;;;;;;;;;;;;;;;;;;5069729;28;5067;-63
2023/06/27 08:56:38;;;;;;;;;;;;;;;;;;5068823;28;5159;-65
2023/06/27 08:59:05;;;;;;;;;;;;;;;;;;5079720;28;1163;-63
2023/06/27 09:01:33;;;;;;;;;;;;;;;;;;5069662;28;4964;-64
2023/06/27 09:03:59;;;;;;;;;;;;;;;;;;5064040;28;4493;-63
2023/06/27 09:06:24;;;;;;;;;;;;;;;;;;5086489;28;5022;-63
2023/06/27 09:08:49;;;;;;;;;;;;;;;;;;5085922;28;4679;-66
2023/06/27 09:11:18;;;;;;;;;;;;;;;;;;5072299;28;5316;-64
2023/06/27 09:13:43;;;;;;;;;;;;;;;;;;5087983;28;1144;-64
2023/06/27 09:16:08;;;;;;;;;;;;;;;;;;5086972;28;5083;-63
2023/06/27 09:18:34;;;;;;;;;;;;;;;;;;5068069;28;4930;-67
2023/06/27 09:20:59;;;;;;;;;;;;;;;;;;5085371;28;5107;-66
2023/06/27 09:23:25;;;;;;;;;;;;;;;;;;5085683;28;4988;-66
2023/06/27 09:26:09;;;;;;;;;;;;;;;;;;5090508;28;4992;-65
2023/06/27 09:28:50;;;;;;;;;;;;;;;;;;5081435;28;4869;-67
2023/06/27 09:31:22;;;;;;;;;;;;;;;;;;5061198;28;4594;-67
2023/06/27 09:33:48;;;;;;;;;;;;;;;;;;5072189;28;5016;-66
2023/06/27 09:36:32;;;;;;;;;;;;;;;;;;5085967;28;4893;-66
2023/06/27 09:39:04;;;;;;;;;;;;;;;;;;5069019;28;5037;-66
2023/06/27 09:41:48;;;;;;;;;;;;;;;;;;5080061;28;4937;-65
2023/06/27 09:44:16;;;;;;;;;;;;;;;;;;5077927;28;4607;-65
2023/06/27 09:46:42;;;;;;;;;;;;;;;;;;5065108;28;3286;-64
2023/06/27 09:49:08;;;;;;;;;;;;;;;;;;5086343;28;5042;-71
2023/06/27 09:51:34;;;;;;;;;;;;;;;;;;5072147;28;5153;-71
2023/06/27 09:53:59;;;;;;;;;;;;;;;;;;5074481;28;4691;-69
2023/06/27 09:56:30;;;;;;;;;;;;;;;;;;5091275;27;5105;-71
2023/06/27 09:58:56;;;;;;;;;;;;;;;;;;5080645;28;3164;-71
2023/06/27 10:01:22;;;;;;;;;;;;;;;;;;5079799;28;4549;-65
2023/06/27 10:03:49;;;;;;;;;;;;;;;;;;5074913;28;5109;-64
2023/06/27 10:06:14;;;;;;;;;;;;;;;;;;5084494;28;5243;-65
2023/06/27 10:08:39;;;;;;;;;;;;;;;;;;5085619;28;4629;-64
2023/06/27 10:11:04;;;;;;;;;;;;;;;;;;5083437;28;3546;-65
2023/06/27 10:13:30;;;;;;;;;;;;;;;;;;5083012;28;4906;-66
2023/06/27 10:15:55;;;;;;;;;;;;;;;;;;5078304;28;5203;-65
2023/06/27 10:18:21;;;;;;;;;;;;;;;;;;5063051;28;4501;-64
2023/06/27 10:20:46;;;;;;;;;;;;;;;;;;5084418;28;5121;-66
2023/06/27 10:23:11;;;;;;;;;;;;;;;;;;5058908;28;3618;-63
2023/06/27 10:25:37;;;;;;;;;;;;;;;;;;5062398;28;5174;-63
2023/06/27 10:28:03;;;;;;;;;;;;;;;;;;5080914;28;4424;-63
2023/06/27 10:30:29;;;;;;;;;;;;;;;;;;5081435;28;4646;-57
2023/06/27 10:33:17;;;;;;;;;;;;;;;;;;5094135;28;5032;-61
2023/06/27 10:35:50;;;;;;;;;;;;;;;;;;5073293;28;5016;-61
2023/06/27 10:38:15;;;;;;;;;;;;;;;;;;5085754;28;4614;-61
2023/06/27 10:40:59;;;;;;;;;;;;;;;;;;5082946;28;1028;-62
2023/06/27 10:43:44;;;;;;;;;;;;;;;;;;5075130;28;4946;-61
2023/06/27 10:46:10;;;;;;;;;;;;;;;;;;5060823;28;5073;-61
2023/06/27 10:48:45;;;;;;;;;;;;;;;;;;5066438;28;5875;-61
2023/06/27 10:51:10;;;;;;;;;;;;;;;;;;5079436;28;4947;-62
2023/06/27 10:53:39;;;;;;;;;;;;;;;;;;5098218;28;4716;-61
2023/06/27 10:56:14;;;;;;;;;;;;;;;;;;5065483;28;1141;-61
2023/06/27 10:58:44;;;;;;;;;;;;;;;;;;5052919;28;4667;-61
2023/06/27 11:01:09;;;;;;;;;;;;;;;;;;5065894;28;4520;-62
2023/06/27 11:03:34;;;;;;;;;;;;;;;;;;5085255;28;5221;-62
2023/06/27 11:05:59;;;;;;;;;;;;;;;;;;5077807;28;5082;-62
2023/06/27 11:08:28;;;;;;;;;;;;;;;;;;5081834;28;5117;-62
2023/06/27 11:10:59;;;;;;;;;;;;;;;;;;5084805;28;3168;-62
2023/06/27 11:13:26;;;;;;;;;;;;;;;;;;5087932;28;5001;-61
2023/06/27 11:15:52;;;;;;;;;;;;;;;;;;5083888;28;5176;-61
2023/06/27 11:18:17;;;;;;;;;;;;;;;;;;5086864;28;5153;-63
2023/06/27 11:20:43;;;;;;;;;;;;;;;;;;5061176;28;5073;-62
2023/06/27 11:23:08;;;;;;;;;;;;;;;;;;5069774;28;3267;-63
2023/06/27 11:25:37;;;;;;;;;;;;;;;;;;5082828;28;5101;-64
2023/06/27 11:28:02;;;;;;;;;;;;;;;;;;5081272;28;4934;-62
2023/06/27 11:30:28;;;;;;;;;;;;;;;;;;5087840;28;5036;-62
2023/06/27 11:32:56;;;;;;;;;;;;;;;;;;5086128;28;4990;-63
2023/06/27 11:35:22;;;;;;;;;;;;;;;;;;5082485;28;4997;-63
2023/06/27 11:37:47;;;;;;;;;;;;;;;;;;5070345;28;3127;-64
2023/06/27 11:40:16;;;;;;;;;;;;;;;;;;5086523;28;5166;-71
2023/06/27 11:42:42;;;;;;;;;;;;;;;;;;5089247;28;5057;-70
2023/06/27 11:45:11;;;;;;;;;;;;;;;;;;5066688;28;4600;-62
2023/06/27 11:47:36;;;;;;;;;;;;;;;;;;5074037;28;5191;-65
2023/06/27 11:50:05;;;;;;;;;;;;;;;;;;5089715;28;1909;-63
2023/06/27 11:52:31;;;;;;;;;;;;;;;;;;5085298;28;4807;-62
2023/06/27 11:54:56;;;;;;;;;;;;;;;;;;5055456;28;5004;-62
2023/06/27 11:57:21;;;;;;;;;;;;;;;;;;5074805;28;4962;-64
2023/06/27 11:59:50;;;;;;;;;;;;;;;;;;5085993;28;4992;-64
2023/06/27 12:02:15;;;;;;;;;;;;;;;;;;5088669;28;4448;-63
2023/06/27 12:04:40;;;;;;;;;;;;;;;;;;5081392;28;2349;-62
2023/06/27 12:07:15;;;;;;;;;;;;;;;;;;5087208;28;4965;-63
2023/06/27 12:09:40;;;;;;;;;;;;;;;;;;5088524;28;5045;-62
2023/06/27 12:12:06;;;;;;;;;;;;;;;;;;5083427;28;5092;-62
2023/06/27 12:14:31;;;;;;;;;;;;;;;;;;5089201;28;5026;-61
2023/06/27 12:16:56;;;;;;;;;;;;;;;;;;5089157;28;1460;-61
2023/06/27 12:19:22;;;;;;;;;;;;;;;;;;5085832;28;4823;-61
2023/06/27 12:21:47;;;;;;;;;;;;;;;;;;5085612;28;5205;-61
2023/06/27 12:24:13;;;;;;;;;;;;;;;;;;5088436;28;5066;-63
2023/06/27 12:26:39;;;;;;;;;;;;;;;;;;5078820;28;5061;-63
2023/06/27 12:29:05;;;;;;;;;;;;;;;;;;5084141;28;1918;-64
2023/06/27 12:31:30;;;;;;;;;;;;;;;;;;5083634;28;4778;-63
2023/06/27 12:33:57;;;;;;;;;;;;;;;;;;5086791;28;4900;-62
2023/06/27 12:36:23;;;;;;;;;;;;;;;;;;5083625;28;4848;-63
2023/06/27 12:38:49;;;;;;;;;;;;;;;;;;5065249;28;4956;-62
2023/06/27 12:41:14;;;;;;;;;;;;;;;;;;5078246;28;5059;-62
2023/06/27 12:43:39;;;;;;;;;;;;;;;;;;5076941;28;3224;-63
2023/06/27 12:46:05;;;;;;;;;;;;;;;;;;5078584;28;4609;-64
2023/06/27 12:48:30;;;;;;;;;;;;;;;;;;5076938;28;4506;-64
2023/06/27 12:50:55;;;;;;;;;;;;;;;;;;5078403;28;5016;-63
2023/06/27 12:53:21;;;;;;;;;;;;;;;;;;5068075;28;4455;-63
2023/06/27 12:55:46;;;;;;;;;;;;;;;;;;5071825;28;3221;-62
2023/06/27 12:58:11;;;;;;;;;;;;;;;;;;5073522;28;5078;-65
2023/06/27 13:00:41;;;;;;;;;;;;;;;;;;5079690;28;5196;-64
2023/06/27 13:03:06;;;;;;;;;;;;;;;;;;5077753;28;4987;-63
2023/06/27 13:05:32;;;;;;;;;;;;;;;;;;5077842;28;4592;-62
2023/06/27 13:07:57;;;;;;;;;;;;;;;;;;5081682;28;3353;-64
2023/06/27 13:10:22;;;;;;;;;;;;;;;;;;5081640;28;4950;-65
2023/06/27 13:12:48;;;;;;;;;;;;;;;;;;5061283;28;5019;-70
2023/06/27 13:15:13;;;;;;;;;;;;;;;;;;5070823;28;5154;-65
2023/06/27 13:17:40;;;;;;;;;;;;;;;;;;5075459;28;5085;-66
2023/06/27 13:20:06;;;;;;;;;;;;;;;;;;5060554;28;3249;-64
2023/06/27 13:22:32;;;;;;;;;;;;;;;;;;5068343;28;4891;-66
2023/06/27 13:24:57;;;;;;;;;;;;;;;;;;5085220;28;4939;-65
2023/06/27 13:27:22;;;;;;;;;;;;;;;;;;5081857;28;5419;-66
2023/06/27 13:29:48;;;;;;;;;;;;;;;;;;5088539;28;4991;-67
2023/06/27 13:32:15;;;;;;;;;;;;;;;;;;5087991;28;1142;-65
2023/06/27 13:34:40;;;;;;;;;;;;;;;;;;5068835;28;5147;-67
2023/06/27 13:37:05;;;;;;;;;;;;;;;;;;5088244;28;5013;-66
2023/06/27 13:39:31;;;;;;;;;;;;;;;;;;5088653;28;4946;-66
2023/06/27 13:41:56;;;;;;;;;;;;;;;;;;5069919;28;4471;-66
2023/06/27 13:44:21;;;;;;;;;;;;;;;;;;5084677;28;5028;-65
2023/06/27 13:46:46;;;;;;;;;;;;;;;;;;5081009;28;1263;-66
2023/06/27 13:49:12;;;;;;;;;;;;;;;;;;5088337;28;5098;-66
2023/06/27 13:51:37;;;;;;;;;;;;;;;;;;5080407;28;4449;-66
2023/06/27 13:54:02;;;;;;;;;;;;;;;;;;5088730;28;4988;-63
2023/06/27 13:56:28;;;;;;;;;;;;;;;;;;5088347;28;4441;-65
2023/06/27 13:58:53;;;;;;;;;;;;;;;;;;5085368;28;1693;-64
2023/06/27 14:01:18;;;;;;;;;;;;;;;;;;5081139;28;4734;-67
2023/06/27 14:03:44;;;;;;;;;;;;;;;;;;5070208;28;4461;-67
2023/06/27 14:06:09;;;;;;;;;;;;;;;;;;5088216;28;4904;-67
2023/06/27 14:08:34;;;;;;;;;;;;;;;;;;5088484;28;4963;-66
2023/06/27 14:11:00;;;;;;;;;;;;;;;;;;5068365;28;1929;-65
2023/06/27 14:13:26;;;;;;;;;;;;;;;;;;5080985;28;5074;-65
2023/06/27 14:15:51;;;;;;;;;;;;;;;;;;5085971;28;4623;-66
2023/06/27 14:18:16;;;;;;;;;;;;;;;;;;5084389;28;5286;-65
2023/06/27 14:20:41;;;;;;;;;;;;;;;;;;5087774;28;5032;-66
2023/06/27 14:23:07;;;;;;;;;;;;;;;;;;5085296;28;1137;-66
2023/06/27 14:25:32;;;;;;;;;;;;;;;;;;5083050;28;4910;-61
2023/06/27 14:27:58;;;;;;;;;;;;;;;;;;5075658;28;4858;-71
2023/06/27 14:30:25;;;;;;;;;;;;;;;;;;5072530;28;5060;-65
2023/06/27 14:32:50;;;;;;;;;;;;;;;;;;5076511;28;5010;-63
2023/06/27 14:35:16;;;;;;;;;;;;;;;;;;5084002;28;5008;-62
2023/06/27 14:37:42;;;;;;;;;;;;;;;;;;5086472;28;1142;-62
2023/06/27 14:40:10;;;;;;;;;;;;;;;;;;5089741;28;4553;-62
2023/06/27 14:42:36;;;;;;;;;;;;;;;;;;5072169;28;5019;-62
2023/06/27 14:45:01;;;;;;;;;;;;;;;;;;5090153;28;4589;-62
2023/06/27 14:47:26;;;;;;;;;;;;;;;;;;5089327;28;5067;-63
2023/06/27 14:49:52;;;;;;;;;;;;;;;;;;5089933;28;1973;-63
2023/06/27 14:52:17;;;;;;;;;;;;;;;;;;5089885;28;4525;-62
2023/06/27 14:54:42;;;;;;;;;;;;;;;;;;5088589;28;4985;-62
2023/06/27 14:57:07;;;;;;;;;;;;;;;;;;5084810;28;5003;-62
2023/06/27 14:59:33;;;;;;;;;;;;;;;;;;5088696;28;5117;-62
2023/06/27 15:01:58;;;;;;;;;;;;;;;;;;5087888;28;1066;-62
2023/06/27 15:04:25;;;;;;;;;;;;;;;;;;5077397;28;5395;-62
2023/06/27 15:06:53;;;;;;;;;;;;;;;;;;5090772;28;5065;-62
2023/06/27 15:09:18;;;;;;;;;;;;;;;;;;5089550;28;4460;-58
2023/06/27 15:11:43;;;;;;;;;;;;;;;;;;5076634;28;5064;-58
2023/06/27 15:14:08;;;;;;;;;;;;;;;;;;5077476;28;3414;-58
2023/06/27 15:16:34;;;;;;;;;;;;;;;;;;5066163;28;5058;-63
2023/06/27 15:18:59;;;;;;;;;;;;;;;;;;5081769;28;5729;-62
2023/06/27 15:21:25;;;;;;;;;;;;;;;;;;5072325;28;5049;-64
2023/06/27 15:23:50;;;;;;;;;;;;;;;;;;5075951;28;4858;-63
2023/06/27 15:26:15;;;;;;;;;;;;;;;;;;5068770;28;4927;-63
2023/06/27 15:28:40;;;;;;;;;;;;;;;;;;5074230;28;3489;-63
2023/06/27 15:31:08;;;;;;;;;;;;;;;;;;5075373;28;5122;-62
2023/06/27 15:33:33;;;;;;;;;;;;;;;;;;5061199;28;5535;-62
2023/06/27 15:35:58;;;;;;;;;;;;;;;;;;5082424;28;4705;-63
2023/06/27 15:38:23;;;;;;;;;;;;;;;;;;5061194;28;5043;-61
2023/06/27 15:40:49;;;;;;;;;;;;;;;;;;5091228;28;1130;-63
2023/06/27 15:43:14;;;;;;;;;;;;;;;;;;5090505;28;4823;-62
2023/06/27 15:45:39;;;;;;;;;;;;;;;;;;5090493;28;5095;-62
2023/06/27 15:48:05;;;;;;;;;;;;;;;;;;5062555;28;5792;-61
2023/06/27 15:50:30;;;;;;;;;;;;;;;;;;5089478;28;4902;-62
2023/06/27 15:52:55;;;;;;;;;;;;;;;;;;5090870;28;1280;-62
2023/06/27 15:55:20;;;;;;;;;;;;;;;;;;5090592;28;4917;-62
2023/06/27 15:57:46;;;;;;;;;;;;;;;;;;5084392;28;4840;-62
2023/06/27 16:00:11;;;;;;;;;;;;;;;;;;5085767;28;4444;-61
2023/06/27 16:02:36;;;;;;;;;;;;;;;;;;5088122;28;5209;-62
2023/06/27 16:05:02;;;;;;;;;;;;;;;;;;5072863;28;1375;-62
2023/06/27 16:07:27;;;;;;;;;;;;;;;;;;5089048;28;4416;-61
2023/06/27 16:09:53;;;;;;;;;;;;;;;;;;5087740;28;4830;-62
2023/06/27 16:12:18;;;;;;;;;;;;;;;;;;5088641;28;4437;-62
2023/06/27 16:14:43;;;;;;;;;;;;;;;;;;5086815;28;5306;-62
2023/06/27 16:17:09;;;;;;;;;;;;;;;;;;5087924;28;1033;-62
2023/06/27 16:19:34;;;;;;;;;;;;;;;;;;5085146;28;4482;-62
2023/06/27 16:22:00;;;;;;;;;;;;;;;;;;5085515;28;4936;-62
2023/06/27 16:24:25;;;;;;;;;;;;;;;;;;5083351;28;5064;-62
2023/06/27 16:26:50;;;;;;;;;;;;;;;;;;5084847;28;5044;-62
2023/06/27 16:29:16;;;;;;;;;;;;;;;;;;5082050;28;5465;-62
2023/06/27 16:31:41;;;;;;;;;;;;;;;;;;5089795;28;1140;-61
2023/06/27 16:34:07;;;;;;;;;;;;;;;;;;5088432;28;6226;-61
2023/06/27 16:36:32;;;;;;;;;;;;;;;;;;5089535;28;5050;-62
2023/06/27 16:38:57;;;;;;;;;;;;;;;;;;5070801;28;5061;-62
2023/06/27 16:41:22;;;;;;;;;;;;;;;;;;5089314;28;4505;-61
2023/06/27 16:43:48;;;;;;;;;;;;;;;;;;5089611;28;1205;-60
2023/06/27 16:46:13;;;;;;;;;;;;;;;;;;5088769;28;5054;-61
2023/06/27 16:48:39;;;;;;;;;;;;;;;;;;5066515;28;5226;-61
2023/06/27 16:51:04;;;;;;;;;;;;;;;;;;5064195;28;4476;-60
2023/06/27 16:53:29;;;;;;;;;;;;;;;;;;5070236;28;4488;-60
2023/06/27 16:55:54;;;;;;;;;;;;;;;;;;5094636;28;2054;-60